sensor_id;sensor_type;location;lat;lon;timestamp;temperature;humidity
364;DHT22;173;48.718;9.274;2022-09-09T00:02:27;15.60;93.40
364;DHT22;173;48.718;9.274;2022-09-09T00:04:38;15.50;93.50
364;DHT22;173;48.718;9.274;2022-09-09T00:13:22;15.60;92.70
364;DHT22;173;48.718;9.274;2022-09-09T00:16:15;15.60;92.60
364;DHT22;173;48.718;9.274;2022-09-09T00:18:53;15.60;92.80
364;DHT22;173;48.718;9.274;2022-09-09T00:21:56;15.70;92.80
364;DHT22;173;48.718;9.274;2022-09-09T00:24:45;15.70;92.50
364;DHT22;173;48.718;9.274;2022-09-09T00:27:37;15.70;92.70
364;DHT22;173;48.718;9.274;2022-09-09T00:32:54;15.60;93.50
364;DHT22;173;48.718;9.274;2022-09-09T00:37:53;15.70;93.80
364;DHT22;173;48.718;9.274;2022-09-09T00:40:32;15.70;94.20
364;DHT22;173;48.718;9.274;2022-09-09T00:43:22;15.80;94.20
364;DHT22;173;48.718;9.274;2022-09-09T00:46:21;15.80;94.40
364;DHT22;173;48.718;9.274;2022-09-09T00:49:19;15.80;94.20
364;DHT22;173;48.718;9.274;2022-09-09T00:55:21;15.90;94.20
364;DHT22;173;48.718;9.274;2022-09-09T00:58:00;15.90;94.50
364;DHT22;173;48.718;9.274;2022-09-09T01:00:41;15.80;94.70
364;DHT22;173;48.718;9.274;2022-09-09T01:03:31;15.90;94.30
364;DHT22;173;48.718;9.274;2022-09-09T01:06:19;16.00;93.40
364;DHT22;173;48.718;9.274;2022-09-09T01:14:43;15.90;92.90
364;DHT22;173;48.718;9.274;2022-09-09T01:17:22;15.90;93.00
364;DHT22;173;48.718;9.274;2022-09-09T01:19:59;15.90;93.30
364;DHT22;173;48.718;9.274;2022-09-09T01:26:13;15.90;93.00
364;DHT22;173;48.718;9.274;2022-09-09T01:28:51;15.90;93.20
364;DHT22;173;48.718;9.274;2022-09-09T01:31:32;15.90;93.20
364;DHT22;173;48.718;9.274;2022-09-09T01:34:13;15.90;93.30
364;DHT22;173;48.718;9.274;2022-09-09T01:36:51;15.80;93.60
364;DHT22;173;48.718;9.274;2022-09-09T01:39:39;15.70;93.80
364;DHT22;173;48.718;9.274;2022-09-09T01:42:14;15.60;94.20
364;DHT22;173;48.718;9.274;2022-09-09T01:44:47;15.60;94.50
364;DHT22;173;48.718;9.274;2022-09-09T01:47:21;15.50;94.70
364;DHT22;173;48.718;9.274;2022-09-09T01:49:54;15.40;95.20
364;DHT22;173;48.718;9.274;2022-09-09T01:52:26;15.30;95.20
364;DHT22;173;48.718;9.274;2022-09-09T01:54:59;15.20;95.30
364;DHT22;173;48.718;9.274;2022-09-09T01:57:44;15.20;95.40
364;DHT22;173;48.718;9.274;2022-09-09T02:00:33;15.20;95.50
364;DHT22;173;48.718;9.274;2022-09-09T02:03:27;15.30;95.50
364;DHT22;173;48.718;9.274;2022-09-09T02:06:27;15.20;95.50
364;DHT22;173;48.718;9.274;2022-09-09T02:08:57;15.20;95.80
364;DHT22;173;48.718;9.274;2022-09-09T02:11:35;15.10;95.70
364;DHT22;173;48.718;9.274;2022-09-09T02:14:12;15.10;95.90
364;DHT22;173;48.718;9.274;2022-09-09T02:17:07;15.20;95.80
364;DHT22;173;48.718;9.274;2022-09-09T02:19:41;15.20;95.40
364;DHT22;173;48.718;9.274;2022-09-09T02:22:18;15.10;95.10
364;DHT22;173;48.718;9.274;2022-09-09T02:24:56;15.20;95.40
364;DHT22;173;48.718;9.274;2022-09-09T02:27:29;15.10;95.40
364;DHT22;173;48.718;9.274;2022-09-09T02:30:03;15.10;95.70
364;DHT22;173;48.718;9.274;2022-09-09T02:32:37;15.10;95.60
364;DHT22;173;48.718;9.274;2022-09-09T02:35:13;15.10;95.60
364;DHT22;173;48.718;9.274;2022-09-09T02:37:47;15.10;95.50
364;DHT22;173;48.718;9.274;2022-09-09T02:40:19;15.00;95.80
364;DHT22;173;48.718;9.274;2022-09-09T02:42:51;14.90;96.10
364;DHT22;173;48.718;9.274;2022-09-09T02:45:41;14.90;96.20
364;DHT22;173;48.718;9.274;2022-09-09T02:48:27;14.70;96.40
364;DHT22;173;48.718;9.274;2022-09-09T02:51:13;14.60;96.80
364;DHT22;173;48.718;9.274;2022-09-09T02:54:32;14.40;97.60
364;DHT22;173;48.718;9.274;2022-09-09T02:57:11;14.40;97.70
364;DHT22;173;48.718;9.274;2022-09-09T02:59:57;14.40;97.80
364;DHT22;173;48.718;9.274;2022-09-09T03:02:30;14.60;97.40
364;DHT22;173;48.718;9.274;2022-09-09T03:05:02;14.50;97.40
364;DHT22;173;48.718;9.274;2022-09-09T03:07:35;14.40;97.80
364;DHT22;173;48.718;9.274;2022-09-09T03:10:07;14.30;98.10
364;DHT22;173;48.718;9.274;2022-09-09T03:12:42;14.30;98.20
364;DHT22;173;48.718;9.274;2022-09-09T03:15:14;14.30;98.50
364;DHT22;173;48.718;9.274;2022-09-09T03:17:48;14.40;98.30
364;DHT22;173;48.718;9.274;2022-09-09T03:20:20;14.50;98.10
364;DHT22;173;48.718;9.274;2022-09-09T03:22:52;14.50;97.90
364;DHT22;173;48.718;9.274;2022-09-09T03:25:25;14.50;97.90
364;DHT22;173;48.718;9.274;2022-09-09T03:27:59;14.60;97.80
364;DHT22;173;48.718;9.274;2022-09-09T03:30:31;14.50;97.80
364;DHT22;173;48.718;9.274;2022-09-09T03:33:03;14.50;97.90
364;DHT22;173;48.718;9.274;2022-09-09T03:35:35;14.60;97.70
364;DHT22;173;48.718;9.274;2022-09-09T03:38:07;14.60;97.70
364;DHT22;173;48.718;9.274;2022-09-09T03:40:39;14.50;97.80
364;DHT22;173;48.718;9.274;2022-09-09T03:43:15;14.40;98.00
364;DHT22;173;48.718;9.274;2022-09-09T03:45:48;14.20;98.40
364;DHT22;173;48.718;9.274;2022-09-09T03:48:21;14.20;98.80
364;DHT22;173;48.718;9.274;2022-09-09T03:50:55;14.20;98.90
364;DHT22;173;48.718;9.274;2022-09-09T03:53:28;14.20;98.60
364;DHT22;173;48.718;9.274;2022-09-09T03:55:59;14.20;98.60
364;DHT22;173;48.718;9.274;2022-09-09T03:58:31;14.20;98.70
364;DHT22;173;48.718;9.274;2022-09-09T04:01:09;14.30;98.40
364;DHT22;173;48.718;9.274;2022-09-09T04:03:43;14.20;98.00
364;DHT22;173;48.718;9.274;2022-09-09T04:06:18;14.20;97.80
364;DHT22;173;48.718;9.274;2022-09-09T04:08:50;14.30;98.00
364;DHT22;173;48.718;9.274;2022-09-09T04:13:55;14.30;97.40
364;DHT22;173;48.718;9.274;2022-09-09T04:16:29;14.30;97.50
364;DHT22;173;48.718;9.274;2022-09-09T04:19:04;14.30;97.40
364;DHT22;173;48.718;9.274;2022-09-09T04:21:39;14.40;97.00
364;DHT22;173;48.718;9.274;2022-09-09T04:24:12;14.40;96.60
364;DHT22;173;48.718;9.274;2022-09-09T04:26:46;14.40;96.40
364;DHT22;173;48.718;9.274;2022-09-09T04:29:20;14.50;96.20
364;DHT22;173;48.718;9.274;2022-09-09T04:31:54;14.50;95.80
364;DHT22;173;48.718;9.274;2022-09-09T04:34:27;14.40;96.20
364;DHT22;173;48.718;9.274;2022-09-09T04:37:01;14.40;96.20
364;DHT22;173;48.718;9.274;2022-09-09T04:39:35;14.50;96.20
364;DHT22;173;48.718;9.274;2022-09-09T04:42:07;14.60;95.90
364;DHT22;173;48.718;9.274;2022-09-09T04:44:43;14.70;95.50
364;DHT22;173;48.718;9.274;2022-09-09T04:47:15;14.70;95.50
364;DHT22;173;48.718;9.274;2022-09-09T04:49:47;14.80;94.60
364;DHT22;173;48.718;9.274;2022-09-09T04:52:21;14.80;94.60
364;DHT22;173;48.718;9.274;2022-09-09T04:54:53;14.80;94.60
364;DHT22;173;48.718;9.274;2022-09-09T04:57:25;14.70;95.00
364;DHT22;173;48.718;9.274;2022-09-09T04:59:59;14.90;94.70
364;DHT22;173;48.718;9.274;2022-09-09T05:02:36;14.90;94.40
364;DHT22;173;48.718;9.274;2022-09-09T05:05:09;15.00;94.40
364;DHT22;173;48.718;9.274;2022-09-09T05:07:43;15.10;93.80
364;DHT22;173;48.718;9.274;2022-09-09T05:10:17;15.10;93.70
364;DHT22;173;48.718;9.274;2022-09-09T05:12:54;15.10;93.70
364;DHT22;173;48.718;9.274;2022-09-09T05:15:28;15.00;94.00
364;DHT22;173;48.718;9.274;2022-09-09T05:18:01;15.10;94.00
364;DHT22;173;48.718;9.274;2022-09-09T05:20:33;15.10;94.20
364;DHT22;173;48.718;9.274;2022-09-09T05:23:05;15.10;94.10
364;DHT22;173;48.718;9.274;2022-09-09T05:25:39;15.20;94.30
364;DHT22;173;48.718;9.274;2022-09-09T05:28:13;15.30;94.50
364;DHT22;173;48.718;9.274;2022-09-09T05:30:54;15.40;94.10
364;DHT22;173;48.718;9.274;2022-09-09T05:33:28;15.40;93.70
364;DHT22;173;48.718;9.274;2022-09-09T05:36:05;15.50;94.00
364;DHT22;173;48.718;9.274;2022-09-09T05:38:40;15.70;94.20
364;DHT22;173;48.718;9.274;2022-09-09T05:41:13;15.70;92.60
364;DHT22;173;48.718;9.274;2022-09-09T05:43:48;15.70;92.90
364;DHT22;173;48.718;9.274;2022-09-09T05:46:23;15.80;92.30
364;DHT22;173;48.718;9.274;2022-09-09T05:48:54;15.90;92.10
364;DHT22;173;48.718;9.274;2022-09-09T05:52:25;16.10;91.00
364;DHT22;173;48.718;9.274;2022-09-09T05:54:57;16.20;90.90
364;DHT22;173;48.718;9.274;2022-09-09T05:57:29;16.40;91.00
364;DHT22;173;48.718;9.274;2022-09-09T06:00:02;16.40;90.10
364;DHT22;173;48.718;9.274;2022-09-09T06:02:34;16.40;90.60
364;DHT22;173;48.718;9.274;2022-09-09T06:05:07;16.30;90.40
364;DHT22;173;48.718;9.274;2022-09-09T06:07:40;16.20;90.70
364;DHT22;173;48.718;9.274;2022-09-09T06:10:11;16.30;91.10
364;DHT22;173;48.718;9.274;2022-09-09T06:12:41;16.30;91.20
364;DHT22;173;48.718;9.274;2022-09-09T06:15:13;16.40;91.40
364;DHT22;173;48.718;9.274;2022-09-09T06:17:47;16.40;91.10
364;DHT22;173;48.718;9.274;2022-09-09T06:20:24;16.40;90.90
364;DHT22;173;48.718;9.274;2022-09-09T06:22:58;16.40;91.10
364;DHT22;173;48.718;9.274;2022-09-09T06:25:31;16.50;91.40
364;DHT22;173;48.718;9.274;2022-09-09T06:28:03;16.60;90.70
364;DHT22;173;48.718;9.274;2022-09-09T06:30:33;16.60;90.60
364;DHT22;173;48.718;9.274;2022-09-09T06:33:06;16.80;90.40
364;DHT22;173;48.718;9.274;2022-09-09T06:35:38;16.90;90.30
364;DHT22;173;48.718;9.274;2022-09-09T06:38:09;17.00;90.40
364;DHT22;173;48.718;9.274;2022-09-09T06:40:41;17.00;92.00
364;DHT22;173;48.718;9.274;2022-09-09T06:43:15;17.10;93.10
364;DHT22;173;48.718;9.274;2022-09-09T06:46:05;17.00;92.90
364;DHT22;173;48.718;9.274;2022-09-09T06:48:38;17.00;92.80
364;DHT22;173;48.718;9.274;2022-09-09T06:51:16;17.10;91.50
364;DHT22;173;48.718;9.274;2022-09-09T06:53:52;17.20;90.20
364;DHT22;173;48.718;9.274;2022-09-09T06:56:30;17.20;89.90
364;DHT22;173;48.718;9.274;2022-09-09T06:59:05;17.30;90.70
364;DHT22;173;48.718;9.274;2022-09-09T07:01:38;17.40;89.60
364;DHT22;173;48.718;9.274;2022-09-09T07:04:19;17.60;90.40
364;DHT22;173;48.718;9.274;2022-09-09T07:06:53;17.90;90.20
364;DHT22;173;48.718;9.274;2022-09-09T07:09:27;18.10;87.70
364;DHT22;173;48.718;9.274;2022-09-09T07:11:57;18.20;87.70
364;DHT22;173;48.718;9.274;2022-09-09T07:14:29;18.40;86.30
364;DHT22;173;48.718;9.274;2022-09-09T07:17:03;18.40;86.10
364;DHT22;173;48.718;9.274;2022-09-09T07:19:36;18.60;86.90
364;DHT22;173;48.718;9.274;2022-09-09T07:22:07;18.70;85.80
364;DHT22;173;48.718;9.274;2022-09-09T07:24:41;18.60;86.00
364;DHT22;173;48.718;9.274;2022-09-09T07:27:15;18.60;86.80
364;DHT22;173;48.718;9.274;2022-09-09T07:29:47;18.60;87.20
364;DHT22;173;48.718;9.274;2022-09-09T07:32:18;18.80;87.30
364;DHT22;173;48.718;9.274;2022-09-09T07:34:53;18.90;86.40
364;DHT22;173;48.718;9.274;2022-09-09T07:37:27;19.00;86.50
364;DHT22;173;48.718;9.274;2022-09-09T07:39:59;18.90;84.70
364;DHT22;173;48.718;9.274;2022-09-09T07:42:33;19.10;84.10
364;DHT22;173;48.718;9.274;2022-09-09T07:45:07;19.00;84.10
364;DHT22;173;48.718;9.274;2022-09-09T07:47:41;18.90;84.00
364;DHT22;173;48.718;9.274;2022-09-09T07:50:15;19.20;83.50
364;DHT22;173;48.718;9.274;2022-09-09T07:52:50;19.50;83.10
364;DHT22;173;48.718;9.274;2022-09-09T07:55:23;19.50;82.70
364;DHT22;173;48.718;9.274;2022-09-09T07:57:57;19.50;82.50
364;DHT22;173;48.718;9.274;2022-09-09T08:00:31;19.80;81.10
364;DHT22;173;48.718;9.274;2022-09-09T08:03:03;19.90;80.50
364;DHT22;173;48.718;9.274;2022-09-09T08:05:35;20.10;80.40
364;DHT22;173;48.718;9.274;2022-09-09T08:08:08;20.10;79.30
364;DHT22;173;48.718;9.274;2022-09-09T08:10:38;20.50;79.70
364;DHT22;173;48.718;9.274;2022-09-09T08:13:10;21.00;78.50
364;DHT22;173;48.718;9.274;2022-09-09T08:15:44;21.30;76.10
364;DHT22;173;48.718;9.274;2022-09-09T08:18:17;20.90;76.90
364;DHT22;173;48.718;9.274;2022-09-09T08:20:51;20.70;77.90
364;DHT22;173;48.718;9.274;2022-09-09T08:23:25;20.90;78.30
364;DHT22;173;48.718;9.274;2022-09-09T08:26:10;21.30;76.90
364;DHT22;173;48.718;9.274;2022-09-09T08:28:45;21.60;75.60
364;DHT22;173;48.718;9.274;2022-09-09T08:31:36;21.90;73.50
364;DHT22;173;48.718;9.274;2022-09-09T08:34:06;21.60;74.40
364;DHT22;173;48.718;9.274;2022-09-09T08:36:41;21.60;75.30
364;DHT22;173;48.718;9.274;2022-09-09T08:39:16;22.00;73.70
364;DHT22;173;48.718;9.274;2022-09-09T08:50:39;23.20;70.00
364;DHT22;173;48.718;9.274;2022-09-09T08:53:27;23.20;67.50
364;DHT22;173;48.718;9.274;2022-09-09T08:55:58;22.70;69.90
364;DHT22;173;48.718;9.274;2022-09-09T08:58:34;23.00;69.40
364;DHT22;173;48.718;9.274;2022-09-09T09:01:25;23.00;69.40
364;DHT22;173;48.718;9.274;2022-09-09T09:04:37;23.10;69.10
364;DHT22;173;48.718;9.274;2022-09-09T09:09:57;22.30;70.60
364;DHT22;173;48.718;9.274;2022-09-09T09:12:45;22.50;70.90
364;DHT22;173;48.718;9.274;2022-09-09T09:15:21;23.20;68.30
364;DHT22;173;48.718;9.274;2022-09-09T09:17:53;23.80;68.20
364;DHT22;173;48.718;9.274;2022-09-09T09:23:09;24.00;65.70
364;DHT22;173;48.718;9.274;2022-09-09T09:25:46;24.40;63.90
364;DHT22;173;48.718;9.274;2022-09-09T09:28:23;24.30;63.80
364;DHT22;173;48.718;9.274;2022-09-09T09:31:10;24.70;63.10
364;DHT22;173;48.718;9.274;2022-09-09T09:36:25;25.00;62.10
364;DHT22;173;48.718;9.274;2022-09-09T09:39:05;23.60;58.20
364;DHT22;173;48.718;9.274;2022-09-09T09:41:43;21.30;63.30
364;DHT22;173;48.718;9.274;2022-09-09T09:44:25;21.20;66.90
364;DHT22;173;48.718;9.274;2022-09-09T09:49:54;21.90;70.10
364;DHT22;173;48.718;9.274;2022-09-09T09:52:26;22.50;61.60
364;DHT22;173;48.718;9.274;2022-09-09T09:55:02;23.10;60.30
364;DHT22;173;48.718;9.274;2022-09-09T09:57:37;23.70;60.20
364;DHT22;173;48.718;9.274;2022-09-09T10:00:14;24.20;56.80
364;DHT22;173;48.718;9.274;2022-09-09T10:02:48;24.30;58.20
364;DHT22;173;48.718;9.274;2022-09-09T10:05:25;24.50;58.60
364;DHT22;173;48.718;9.274;2022-09-09T10:08:13;24.50;58.10
364;DHT22;173;48.718;9.274;2022-09-09T10:19:32;25.30;57.80
364;DHT22;173;48.718;9.274;2022-09-09T10:27:48;25.40;55.30
364;DHT22;173;48.718;9.274;2022-09-09T10:30:47;25.50;54.90
364;DHT22;173;48.718;9.274;2022-09-09T10:36:19;26.10;55.70
364;DHT22;173;48.718;9.274;2022-09-09T10:39:00;26.70;53.70
364;DHT22;173;48.718;9.274;2022-09-09T10:41:50;26.40;53.60
364;DHT22;173;48.718;9.274;2022-09-09T10:50:42;27.60;52.80
364;DHT22;173;48.718;9.274;2022-09-09T10:53:36;27.80;54.10
364;DHT22;173;48.718;9.274;2022-09-09T10:56:18;27.90;53.10
364;DHT22;173;48.718;9.274;2022-09-09T10:58:57;27.50;52.70
364;DHT22;173;48.718;9.274;2022-09-09T11:01:47;26.90;55.00
364;DHT22;173;48.718;9.274;2022-09-09T11:04:25;26.10;55.00
364;DHT22;173;48.718;9.274;2022-09-09T11:07:02;25.30;58.40
364;DHT22;173;48.718;9.274;2022-09-09T11:09:39;25.90;57.10
364;DHT22;173;48.718;9.274;2022-09-09T11:12:18;27.30;52.50
364;DHT22;173;48.718;9.274;2022-09-09T11:15:04;27.90;48.30
364;DHT22;173;48.718;9.274;2022-09-09T11:17:49;28.20;50.40
364;DHT22;173;48.718;9.274;2022-09-09T11:20:25;27.00;51.60
364;DHT22;173;48.718;9.274;2022-09-09T11:23:22;25.90;52.60
364;DHT22;173;48.718;9.274;2022-09-09T11:25:56;25.00;51.60
364;DHT22;173;48.718;9.274;2022-09-09T11:28:53;24.40;56.90
364;DHT22;173;48.718;9.274;2022-09-09T11:31:42;24.10;58.80
364;DHT22;173;48.718;9.274;2022-09-09T11:37:35;23.00;66.20
364;DHT22;173;48.718;9.274;2022-09-09T11:40:17;21.60;75.80
364;DHT22;173;48.718;9.274;2022-09-09T11:43:05;20.50;77.80
364;DHT22;173;48.718;9.274;2022-09-09T11:45:49;19.80;82.30
364;DHT22;173;48.718;9.274;2022-09-09T11:48:33;19.40;83.60
364;DHT22;173;48.718;9.274;2022-09-09T11:51:12;19.50;83.90
364;DHT22;173;48.718;9.274;2022-09-09T11:57:05;20.60;79.00
364;DHT22;173;48.718;9.274;2022-09-09T11:59:40;20.80;76.80
364;DHT22;173;48.718;9.274;2022-09-09T12:02:22;20.90;77.80
364;DHT22;173;48.718;9.274;2022-09-09T12:07:56;21.60;74.80
364;DHT22;173;48.718;9.274;2022-09-09T12:10:33;22.80;68.80
364;DHT22;173;48.718;9.274;2022-09-09T12:13:19;22.70;66.30
364;DHT22;173;48.718;9.274;2022-09-09T12:15:59;22.50;67.50
364;DHT22;173;48.718;9.274;2022-09-09T12:18:40;22.70;67.30
364;DHT22;173;48.718;9.274;2022-09-09T12:24:17;22.20;66.70
364;DHT22;173;48.718;9.274;2022-09-09T12:26:58;23.20;60.40
364;DHT22;173;48.718;9.274;2022-09-09T12:29:54;24.40;57.30
364;DHT22;173;48.718;9.274;2022-09-09T12:32:26;25.40;56.40
364;DHT22;173;48.718;9.274;2022-09-09T12:35:04;25.40;53.60
364;DHT22;173;48.718;9.274;2022-09-09T12:37:54;25.00;55.70
364;DHT22;173;48.718;9.274;2022-09-09T12:40:30;25.30;53.90
364;DHT22;173;48.718;9.274;2022-09-09T12:43:18;25.80;52.00
364;DHT22;173;48.718;9.274;2022-09-09T12:45:58;26.00;51.00
364;DHT22;173;48.718;9.274;2022-09-09T12:48:36;26.20;52.20
364;DHT22;173;48.718;9.274;2022-09-09T12:51:32;27.10;50.40
364;DHT22;173;48.718;9.274;2022-09-09T12:54:03;26.60;49.00
364;DHT22;173;48.718;9.274;2022-09-09T12:56:35;25.20;51.30
364;DHT22;173;48.718;9.274;2022-09-09T12:59:17;24.60;53.00
364;DHT22;173;48.718;9.274;2022-09-09T13:01:57;23.70;56.40
364;DHT22;173;48.718;9.274;2022-09-09T13:04:29;23.50;57.70
364;DHT22;173;48.718;9.274;2022-09-09T13:07:08;23.00;57.90
364;DHT22;173;48.718;9.274;2022-09-09T13:09:42;23.00;60.70
364;DHT22;173;48.718;9.274;2022-09-09T13:12:18;23.00;59.60
364;DHT22;173;48.718;9.274;2022-09-09T13:14:53;23.00;59.30
364;DHT22;173;48.718;9.274;2022-09-09T13:17:27;23.00;60.10
364;DHT22;173;48.718;9.274;2022-09-09T13:19:59;23.20;59.30
364;DHT22;173;48.718;9.274;2022-09-09T13:22:38;23.30;57.90
364;DHT22;173;48.718;9.274;2022-09-09T13:27:53;23.40;57.60
364;DHT22;173;48.718;9.274;2022-09-09T13:30:34;23.50;56.00
364;DHT22;173;48.718;9.274;2022-09-09T13:35:54;23.70;55.60
364;DHT22;173;48.718;9.274;2022-09-09T13:38:26;24.40;52.60
364;DHT22;173;48.718;9.274;2022-09-09T13:41:00;24.60;52.70
364;DHT22;173;48.718;9.274;2022-09-09T13:43:42;25.70;50.80
364;DHT22;173;48.718;9.274;2022-09-09T13:52:01;27.90;46.90
364;DHT22;173;48.718;9.274;2022-09-09T13:54:47;28.00;46.90
364;DHT22;173;48.718;9.274;2022-09-09T13:57:22;27.70;47.70
364;DHT22;173;48.718;9.274;2022-09-09T13:59:56;27.10;49.30
364;DHT22;173;48.718;9.274;2022-09-09T14:02:28;27.50;48.70
364;DHT22;173;48.718;9.274;2022-09-09T14:05:01;28.10;48.70
364;DHT22;173;48.718;9.274;2022-09-09T14:07:33;28.20;46.50
364;DHT22;173;48.718;9.274;2022-09-09T14:10:06;27.60;47.60
364;DHT22;173;48.718;9.274;2022-09-09T14:12:39;27.40;49.40
364;DHT22;173;48.718;9.274;2022-09-09T14:15:11;27.60;48.80
364;DHT22;173;48.718;9.274;2022-09-09T14:17:44;28.10;45.60
364;DHT22;173;48.718;9.274;2022-09-09T14:20:16;28.60;45.60
364;DHT22;173;48.718;9.274;2022-09-09T14:22:48;28.80;43.80
364;DHT22;173;48.718;9.274;2022-09-09T14:25:21;28.80;44.40
364;DHT22;173;48.718;9.274;2022-09-09T14:27:53;28.80;43.80
364;DHT22;173;48.718;9.274;2022-09-09T14:30:24;28.80;45.60
364;DHT22;173;48.718;9.274;2022-09-09T14:32:56;28.90;43.00
364;DHT22;173;48.718;9.274;2022-09-09T14:35:29;28.50;44.20
364;DHT22;173;48.718;9.274;2022-09-09T14:38:02;27.70;44.40
364;DHT22;173;48.718;9.274;2022-09-09T14:40:36;28.00;44.40
364;DHT22;173;48.718;9.274;2022-09-09T14:43:10;28.00;42.50
364;DHT22;173;48.718;9.274;2022-09-09T14:45:42;27.80;43.90
364;DHT22;173;48.718;9.274;2022-09-09T14:48:16;28.10;42.80
364;DHT22;173;48.718;9.274;2022-09-09T14:50:48;27.70;42.70
364;DHT22;173;48.718;9.274;2022-09-09T14:53:20;27.50;43.30
364;DHT22;173;48.718;9.274;2022-09-09T14:55:52;28.00;43.40
364;DHT22;173;48.718;9.274;2022-09-09T14:58:25;28.50;42.30
364;DHT22;173;48.718;9.274;2022-09-09T15:01:05;28.60;41.30
364;DHT22;173;48.718;9.274;2022-09-09T15:03:39;28.40;42.10
364;DHT22;173;48.718;9.274;2022-09-09T15:06:14;28.60;40.70
364;DHT22;173;48.718;9.274;2022-09-09T15:08:47;28.50;41.00
364;DHT22;173;48.718;9.274;2022-09-09T15:11:22;28.60;40.90
364;DHT22;173;48.718;9.274;2022-09-09T15:13:56;28.30;42.00
364;DHT22;173;48.718;9.274;2022-09-09T15:16:29;28.00;42.20
364;DHT22;173;48.718;9.274;2022-09-09T15:19:02;28.30;41.60
364;DHT22;173;48.718;9.274;2022-09-09T15:21:36;27.80;41.30
364;DHT22;173;48.718;9.274;2022-09-09T15:24:08;27.20;43.30
364;DHT22;173;48.718;9.274;2022-09-09T15:26:41;27.20;44.10
364;DHT22;173;48.718;9.274;2022-09-09T15:29:13;26.90;44.70
364;DHT22;173;48.718;9.274;2022-09-09T15:31:46;26.90;45.40
364;DHT22;173;48.718;9.274;2022-09-09T15:34:18;27.00;45.20
364;DHT22;173;48.718;9.274;2022-09-09T15:36:50;26.70;45.80
364;DHT22;173;48.718;9.274;2022-09-09T15:39:23;26.50;46.70
364;DHT22;173;48.718;9.274;2022-09-09T15:41:55;25.80;47.40
364;DHT22;173;48.718;9.274;2022-09-09T15:44:28;25.20;48.90
364;DHT22;173;48.718;9.274;2022-09-09T15:47:00;24.70;51.10
364;DHT22;173;48.718;9.274;2022-09-09T15:49:32;24.40;51.40
364;DHT22;173;48.718;9.274;2022-09-09T15:52:04;23.90;52.40
364;DHT22;173;48.718;9.274;2022-09-09T15:54:37;23.40;53.50
364;DHT22;173;48.718;9.274;2022-09-09T15:59:59;23.20;51.90
364;DHT22;173;48.718;9.274;2022-09-09T16:02:33;23.20;52.80
364;DHT22;173;48.718;9.274;2022-09-09T16:05:03;23.20;52.80
364;DHT22;173;48.718;9.274;2022-09-09T16:07:36;23.00;52.20
364;DHT22;173;48.718;9.274;2022-09-09T16:10:10;22.70;52.50
364;DHT22;173;48.718;9.274;2022-09-09T16:12:40;22.50;53.10
364;DHT22;173;48.718;9.274;2022-09-09T16:15:11;22.30;53.50
364;DHT22;173;48.718;9.274;2022-09-09T16:17:43;22.20;54.40
364;DHT22;173;48.718;9.274;2022-09-09T16:20:17;22.20;54.50
364;DHT22;173;48.718;9.274;2022-09-09T16:22:49;22.20;54.40
364;DHT22;173;48.718;9.274;2022-09-09T16:25:21;22.10;53.80
364;DHT22;173;48.718;9.274;2022-09-09T16:27:55;22.10;54.40
364;DHT22;173;48.718;9.274;2022-09-09T16:30:28;22.00;54.80
364;DHT22;173;48.718;9.274;2022-09-09T16:33:00;21.90;55.10
364;DHT22;173;48.718;9.274;2022-09-09T16:37:02;21.90;56.00
364;DHT22;173;48.718;9.274;2022-09-09T16:39:36;22.00;55.90
364;DHT22;173;48.718;9.274;2022-09-09T16:42:08;21.90;55.80
364;DHT22;173;48.718;9.274;2022-09-09T16:44:40;21.90;57.00
364;DHT22;173;48.718;9.274;2022-09-09T16:47:11;22.10;56.80
364;DHT22;173;48.718;9.274;2022-09-09T16:49:43;22.10;56.50
364;DHT22;173;48.718;9.274;2022-09-09T16:52:16;22.30;56.70
364;DHT22;173;48.718;9.274;2022-09-09T16:54:48;22.40;56.40
364;DHT22;173;48.718;9.274;2022-09-09T16:57:20;22.40;57.40
364;DHT22;173;48.718;9.274;2022-09-09T16:59:51;22.30;57.80
364;DHT22;173;48.718;9.274;2022-09-09T17:02:24;22.00;59.40
364;DHT22;173;48.718;9.274;2022-09-09T17:04:55;21.60;59.70
364;DHT22;173;48.718;9.274;2022-09-09T17:07:27;21.40;60.60
364;DHT22;173;48.718;9.274;2022-09-09T17:10:00;21.30;61.20
364;DHT22;173;48.718;9.274;2022-09-09T17:12:33;21.30;61.50
364;DHT22;173;48.718;9.274;2022-09-09T17:15:06;21.20;61.30
364;DHT22;173;48.718;9.274;2022-09-09T17:17:38;21.20;61.70
364;DHT22;173;48.718;9.274;2022-09-09T17:20:10;21.00;61.50
364;DHT22;173;48.718;9.274;2022-09-09T17:22:43;21.00;61.30
364;DHT22;173;48.718;9.274;2022-09-09T17:25:16;20.90;61.40
364;DHT22;173;48.718;9.274;2022-09-09T17:27:48;21.00;61.70
364;DHT22;173;48.718;9.274;2022-09-09T17:30:21;21.00;62.20
364;DHT22;173;48.718;9.274;2022-09-09T17:32:53;21.00;62.00
364;DHT22;173;48.718;9.274;2022-09-09T17:35:25;20.90;62.90
364;DHT22;173;48.718;9.274;2022-09-09T17:37:57;20.90;62.60
364;DHT22;173;48.718;9.274;2022-09-09T17:40:29;20.90;62.20
364;DHT22;173;48.718;9.274;2022-09-09T17:43:01;20.90;63.00
364;DHT22;173;48.718;9.274;2022-09-09T17:45:32;20.90;63.70
364;DHT22;173;48.718;9.274;2022-09-09T17:48:03;21.00;63.90
364;DHT22;173;48.718;9.274;2022-09-09T17:50:35;21.20;63.30
364;DHT22;173;48.718;9.274;2022-09-09T17:53:06;21.20;62.50
364;DHT22;173;48.718;9.274;2022-09-09T17:55:36;21.20;62.40
364;DHT22;173;48.718;9.274;2022-09-09T17:58:08;21.10;62.90
364;DHT22;173;48.718;9.274;2022-09-09T18:00:40;21.00;63.90
364;DHT22;173;48.718;9.274;2022-09-09T18:03:11;20.90;63.60
364;DHT22;173;48.718;9.274;2022-09-09T18:05:43;20.90;64.30
364;DHT22;173;48.718;9.274;2022-09-09T18:08:15;20.90;64.30
364;DHT22;173;48.718;9.274;2022-09-09T18:10:52;21.00;63.70
364;DHT22;173;48.718;9.274;2022-09-09T18:13:23;20.90;64.70
364;DHT22;173;48.718;9.274;2022-09-09T18:15:56;20.90;63.40
364;DHT22;173;48.718;9.274;2022-09-09T18:18:29;20.90;63.90
364;DHT22;173;48.718;9.274;2022-09-09T18:21:04;20.80;64.70
364;DHT22;173;48.718;9.274;2022-09-09T18:23:41;20.70;64.60
364;DHT22;173;48.718;9.274;2022-09-09T18:26:21;20.60;64.60
364;DHT22;173;48.718;9.274;2022-09-09T18:28:53;20.50;65.20
364;DHT22;173;48.718;9.274;2022-09-09T18:31:28;20.30;65.80
364;DHT22;173;48.718;9.274;2022-09-09T18:34:02;20.30;66.50
364;DHT22;173;48.718;9.274;2022-09-09T18:39:18;20.20;67.00
364;DHT22;173;48.718;9.274;2022-09-09T18:41:53;20.10;67.20
364;DHT22;173;48.718;9.274;2022-09-09T18:44:29;20.00;66.80
364;DHT22;173;48.718;9.274;2022-09-09T18:47:02;19.90;67.70
364;DHT22;173;48.718;9.274;2022-09-09T18:49:35;19.90;67.90
364;DHT22;173;48.718;9.274;2022-09-09T18:52:07;19.80;68.20
364;DHT22;173;48.718;9.274;2022-09-09T18:54:37;19.70;68.80
364;DHT22;173;48.718;9.274;2022-09-09T18:57:11;19.60;69.10
364;DHT22;173;48.718;9.274;2022-09-09T18:59:43;19.50;69.80
364;DHT22;173;48.718;9.274;2022-09-09T19:02:16;19.50;70.00
364;DHT22;173;48.718;9.274;2022-09-09T19:04:48;19.50;70.00
364;DHT22;173;48.718;9.274;2022-09-09T19:07:19;19.50;70.60
364;DHT22;173;48.718;9.274;2022-09-09T19:09:50;19.30;71.20
364;DHT22;173;48.718;9.274;2022-09-09T19:12:22;19.20;71.60
364;DHT22;173;48.718;9.274;2022-09-09T19:14:54;19.30;71.70